createdAt,value
2023-03-24T00:00:25.185Z,101.20
2023-03-24T00:02:54.221Z,104.70
2023-03-24T00:05:23.776Z,118.50
2023-03-24T00:07:54.936Z,102.90
2023-03-24T00:10:24.726Z,122.00
2023-03-24T00:12:56.484Z,104.70
2023-03-24T00:15:27.456Z,114.90
2023-03-24T00:17:58.434Z,120.80
2023-03-24T00:20:27.232Z,131.50
2023-03-24T00:22:59.072Z,106.90
2023-03-24T00:25:34.108Z,116.10
2023-03-24T00:28:07.386Z,134.50
2023-03-24T00:30:36.564Z,126.20
2023-03-24T00:33:05.043Z,106.90
2023-03-24T00:35:33.513Z,139.00
2023-03-24T00:38:03.011Z,108.10
2023-03-24T00:40:31.467Z,100.80
2023-03-24T00:43:00.680Z,109.20
2023-03-24T00:45:34.614Z,105.20
2023-03-24T00:48:06.548Z,97.90
2023-03-24T00:50:35.099Z,116.50
2023-03-24T00:53:03.367Z,94.40
2023-03-24T00:55:32.395Z,107.30
2023-03-24T00:58:01.459Z,100.20
2023-03-24T01:00:30.789Z,117.30
2023-03-24T01:03:00.010Z,100.40
2023-03-24T01:05:30.867Z,91.10
2023-03-24T01:08:03.940Z,110.70
2023-03-24T01:10:42.626Z,101.80
2023-03-24T01:13:12.728Z,98.10
2023-03-24T01:15:41.092Z,90.20
2023-03-24T01:18:09.982Z,93.80
2023-03-24T01:20:40.960Z,84.50
2023-03-24T01:23:11.394Z,104.00
2023-03-24T01:25:45.418Z,100.00
2023-03-24T01:28:17.615Z,86.70
2023-03-24T01:30:46.129Z,103.90
2023-03-24T01:33:15.740Z,93.10
2023-03-24T01:35:45.222Z,94.20
2023-03-24T01:38:14.906Z,97.10
2023-03-24T01:40:47.514Z,91.40
2023-03-24T01:43:22.430Z,90.70
2023-03-24T01:45:51.221Z,80.50
2023-03-24T01:48:37.005Z,108.40
2023-03-24T01:51:12.605Z,102.10
2023-03-24T01:53:46.909Z,97.50
2023-03-24T01:56:18.710Z,103.50
2023-03-24T01:58:56.349Z,99.30
2023-03-24T02:01:54.674Z,108.40
2023-03-24T02:04:50.603Z,120.30
2023-03-24T02:07:46.348Z,94.50
2023-03-24T02:10:18.471Z,104.50
2023-03-24T02:12:47.681Z,96.10
2023-03-24T02:15:20.812Z,98.10
2023-03-24T02:18:08.330Z,87.60
2023-03-24T02:21:04.907Z,100.80
2023-03-24T02:24:05.119Z,109.30
2023-03-24T02:26:39.989Z,97.20
2023-03-24T02:29:11.555Z,95.80
2023-03-24T02:31:49.235Z,88.40
2023-03-24T02:34:52.068Z,94.00
2023-03-24T02:40:08.329Z,90.00
2023-03-24T02:43:14.736Z,77.90
2023-03-24T02:46:04.871Z,85.40
2023-03-24T02:48:50.523Z,79.30
2023-03-24T02:51:35.980Z,80.50
2023-03-24T02:54:19.423Z,72.80
2023-03-24T02:56:54.640Z,77.20
2023-03-24T02:59:37.691Z,69.70
2023-03-24T03:02:23.748Z,81.40
2023-03-24T03:05:06.263Z,79.20
2023-03-24T03:07:38.436Z,91.50
2023-03-24T03:10:15.939Z,78.10
2023-03-24T03:12:50.493Z,63.00
2023-03-24T03:15:25.135Z,104.80
2023-03-24T03:18:03.072Z,76.30
2023-03-24T03:20:38.691Z,84.50
2023-03-24T03:23:12.153Z,66.50
2023-03-24T03:25:53.890Z,64.80
2023-03-24T03:28:30.165Z,80.60
2023-03-24T03:31:06.064Z,85.40
2023-03-24T03:33:41.729Z,75.30
2023-03-24T03:36:33.359Z,79.50
2023-03-24T03:39:19.650Z,76.00
2023-03-24T03:41:48.761Z,73.40
2023-03-24T03:44:17.241Z,96.30
2023-03-24T03:46:47.014Z,78.00
2023-03-24T03:49:20.032Z,85.20
2023-03-24T03:51:49.167Z,96.00
2023-03-24T03:54:19.746Z,101.50
2023-03-24T03:56:50.100Z,111.00
2023-03-24T03:59:27.594Z,108.40
2023-03-24T04:01:57.121Z,99.10
2023-03-24T04:05:05.923Z,103.80
2023-03-24T04:07:58.354Z,114.80
2023-03-24T04:11:10.040Z,110.80
2023-03-24T04:14:02.409Z,100.70
2023-03-24T04:17:01.976Z,126.00
2023-03-24T04:19:42.601Z,101.10
2023-03-24T04:22:22.028Z,102.90
2023-03-24T04:25:02.199Z,114.80
2023-03-24T04:27:46.836Z,100.90
2023-03-24T04:30:37.422Z,98.20
2023-03-24T04:33:41.760Z,99.90
2023-03-24T04:36:19.210Z,107.20
2023-03-24T04:39:07.415Z,97.90
2023-03-24T04:41:44.942Z,107.70
2023-03-24T04:44:22.021Z,103.90
2023-03-24T04:47:11.588Z,112.10
2023-03-24T04:49:41.318Z,115.10
2023-03-24T04:52:09.604Z,101.10
2023-03-24T04:54:39.057Z,97.60
2023-03-24T04:57:08.138Z,97.80
2023-03-24T04:59:46.313Z,116.00
2023-03-24T05:02:15.843Z,91.40
2023-03-24T05:05:08.085Z,83.00
2023-03-24T05:07:46.406Z,93.10
2023-03-24T05:10:17.083Z,117.70
2023-03-24T05:12:51.594Z,95.60
2023-03-24T05:15:29.307Z,97.70
2023-03-24T05:18:06.376Z,120.40
2023-03-24T05:20:36.488Z,107.20
2023-03-24T05:23:13.278Z,99.80
2023-03-24T05:25:46.806Z,90.70
2023-03-24T05:28:17.733Z,92.20
2023-03-24T05:30:47.362Z,79.50
2023-03-24T05:33:34.701Z,73.60
2023-03-24T05:36:05.046Z,91.70
2023-03-24T05:38:40.893Z,98.30
2023-03-24T05:41:10.108Z,70.40
2023-03-24T05:43:41.120Z,88.20
2023-03-24T05:46:12.149Z,72.70
2023-03-24T05:48:41.483Z,80.00
2023-03-24T05:51:17.173Z,73.70
2023-03-24T05:53:46.248Z,81.90
2023-03-24T05:56:17.369Z,70.30
2023-03-24T05:59:04.964Z,72.00
2023-03-24T06:01:53.616Z,67.20
2023-03-24T06:04:30.666Z,52.80
2023-03-24T06:07:09.091Z,51.60
2023-03-24T06:09:42.637Z,55.00
2023-03-24T06:12:14.227Z,52.50
2023-03-24T06:14:49.705Z,64.30
2023-03-24T06:17:21.549Z,49.80
2023-03-24T06:19:53.726Z,54.10
2023-03-24T06:22:41.176Z,46.30
2023-03-24T06:25:17.042Z,65.70
2023-03-24T06:27:53.623Z,47.10
2023-03-24T06:30:27.109Z,58.10
2023-03-24T06:32:56.500Z,36.70
2023-03-24T06:35:25.877Z,45.70
2023-03-24T06:38:09.692Z,50.00
2023-03-24T06:40:39.003Z,45.00
2023-03-24T06:43:07.484Z,54.20
2023-03-24T06:45:40.379Z,50.10
2023-03-24T06:48:10.957Z,54.80
2023-03-24T06:50:41.186Z,56.40
2023-03-24T06:53:12.228Z,55.20
2023-03-24T06:55:43.454Z,64.50
2023-03-24T06:58:15.145Z,53.30
2023-03-24T07:01:13.260Z,57.80
2023-03-24T07:03:58.085Z,59.00
2023-03-24T07:06:26.869Z,58.40
2023-03-24T07:08:58.185Z,49.60
2023-03-24T07:11:29.026Z,52.00
2023-03-24T07:14:01.463Z,48.40
2023-03-24T07:16:37.392Z,51.00
2023-03-24T07:19:32.641Z,41.60
2023-03-24T07:22:24.626Z,41.20
2023-03-24T07:25:14.503Z,40.50
2023-03-24T07:27:56.656Z,25.70
2023-03-24T07:30:33.651Z,32.70
2023-03-24T07:33:12.842Z,29.60
2023-03-24T07:35:43.623Z,80.40
2023-03-24T07:38:16.075Z,32.50
2023-03-24T07:40:44.839Z,26.10
2023-03-24T07:43:15.857Z,23.10
2023-03-24T07:46:23.115Z,27.30
2023-03-24T07:48:53.614Z,37.30
2023-03-24T07:51:22.602Z,30.50
2023-03-24T07:54:26.814Z,26.20
2023-03-24T07:56:56.360Z,37.20
2023-03-24T07:59:26.820Z,26.70
2023-03-24T08:02:30.291Z,23.60
2023-03-24T08:05:02.893Z,29.50
2023-03-24T08:07:54.268Z,23.00
2023-03-24T08:10:28.553Z,33.60
2023-03-24T08:13:02.823Z,37.30
2023-03-24T08:15:31.855Z,37.20
2023-03-24T08:18:02.344Z,41.60
2023-03-24T08:23:05.140Z,27.80
2023-03-24T08:25:34.844Z,36.00
2023-03-24T08:28:03.444Z,63.50
2023-03-24T08:30:32.709Z,28.40
2023-03-24T08:33:02.661Z,37.20
2023-03-24T08:35:39.163Z,31.00
2023-03-24T08:38:10.271Z,24.60
2023-03-24T08:40:41.718Z,23.10
2023-03-24T08:43:16.158Z,22.80
2023-03-24T08:45:44.805Z,32.50
2023-03-24T08:48:13.158Z,24.20
2023-03-24T08:50:42.541Z,26.30
2023-03-24T08:53:12.632Z,58.10
2023-03-24T08:55:43.613Z,24.00
2023-03-24T08:58:19.215Z,20.50
2023-03-24T09:00:48.903Z,27.30
2023-03-24T09:03:22.445Z,27.50
2023-03-24T09:05:57.697Z,27.40
2023-03-24T09:08:26.523Z,30.30
2023-03-24T09:10:54.903Z,29.80
2023-03-24T09:13:24.590Z,22.00
2023-03-24T09:15:58.364Z,16.80
2023-03-24T09:18:26.935Z,24.50
2023-03-24T09:20:55.628Z,33.80
2023-03-24T09:23:24.417Z,28.50
2023-03-24T09:25:53.995Z,45.10
2023-03-24T09:28:24.410Z,42.90
2023-03-24T09:31:06.304Z,30.00
2023-03-24T09:33:35.167Z,25.40
2023-03-24T09:36:05.403Z,20.00
2023-03-24T09:38:35.258Z,24.60
2023-03-24T09:41:04.502Z,30.40
2023-03-24T09:43:44.942Z,24.10
2023-03-24T09:46:26.807Z,20.80
2023-03-24T09:48:57.776Z,22.00
2023-03-24T09:51:37.372Z,20.70
2023-03-24T09:54:25.442Z,26.30
2023-03-24T09:56:56.163Z,16.00
2023-03-24T09:59:39.904Z,25.40
2023-03-24T10:02:16.317Z,24.80
2023-03-24T10:04:45.069Z,28.30
2023-03-24T10:07:39.855Z,19.20
2023-03-24T10:10:22.223Z,17.10
2023-03-24T10:12:51.170Z,27.70
2023-03-24T10:15:34.584Z,22.60
2023-03-24T10:18:13.145Z,19.20
2023-03-24T10:20:50.871Z,14.80
2023-03-24T10:23:46.093Z,19.30
2023-03-24T10:26:39.434Z,25.50
2023-03-24T10:29:22.419Z,26.90
2023-03-24T10:32:22.563Z,25.20
2023-03-24T10:35:07.700Z,32.40
2023-03-24T10:37:37.308Z,17.60
2023-03-24T10:40:16.777Z,14.30
2023-03-24T10:42:48.959Z,7.40
2023-03-24T10:45:29.791Z,32.00
2023-03-24T10:48:02.433Z,95.30
2023-03-24T10:50:36.158Z,92.60
2023-03-24T10:55:40.051Z,36.70
2023-03-24T10:58:29.573Z,23.70
2023-03-24T11:01:00.853Z,16.70
2023-03-24T11:03:38.268Z,16.10
2023-03-24T11:06:07.386Z,78.00
2023-03-24T11:08:40.334Z,13.20
2023-03-24T11:11:30.769Z,13.40
2023-03-24T11:14:04.539Z,22.60
2023-03-24T11:16:39.039Z,13.90
2023-03-24T11:19:22.589Z,14.50
2023-03-24T11:21:58.001Z,21.50
2023-03-24T11:24:27.512Z,18.80
2023-03-24T11:26:59.156Z,32.40
2023-03-24T11:29:30.565Z,40.60
2023-03-24T11:32:12.328Z,22.70
2023-03-24T11:34:48.992Z,19.80
2023-03-24T11:37:21.920Z,28.70
2023-03-24T11:40:12.341Z,20.30
2023-03-24T11:42:45.929Z,13.60
2023-03-24T11:45:40.893Z,17.10
2023-03-24T11:48:23.881Z,31.40
2023-03-24T11:50:55.569Z,21.70
2023-03-24T11:53:28.729Z,15.40
2023-03-24T11:56:09.798Z,14.10
2023-03-24T11:58:56.959Z,13.10
2023-03-24T12:01:32.051Z,11.30
2023-03-24T12:04:25.185Z,18.50
2023-03-24T12:07:32.298Z,18.90
2023-03-24T12:10:19.886Z,16.70
2023-03-24T12:12:55.721Z,20.00
2023-03-24T12:15:52.359Z,16.70
2023-03-24T12:18:45.550Z,15.40
2023-03-24T12:21:27.282Z,20.80
2023-03-24T12:24:09.659Z,15.60
2023-03-24T12:26:39.933Z,15.20
2023-03-24T12:29:17.687Z,15.90
2023-03-24T12:32:14.290Z,10.70
2023-03-24T12:35:25.680Z,18.50
2023-03-24T12:38:30.578Z,15.70
2023-03-24T12:41:25.285Z,11.30
2023-03-24T12:44:05.728Z,12.50
2023-03-24T12:46:59.942Z,13.70
2023-03-24T12:49:46.898Z,16.80
2023-03-24T12:52:37.572Z,17.10
2023-03-24T12:55:17.853Z,17.70
2023-03-24T12:57:56.037Z,23.80
2023-03-24T13:00:34.484Z,9.50
2023-03-24T13:03:13.141Z,26.70
2023-03-24T13:05:51.615Z,15.80
2023-03-24T13:08:29.807Z,9.80
2023-03-24T13:11:05.603Z,139.60
2023-03-24T13:13:40.422Z,18.50
2023-03-24T13:16:25.983Z,91.50
2023-03-24T13:19:00.621Z,19.20
2023-03-24T13:21:31.778Z,12.10
2023-03-24T13:24:14.291Z,17.30
2023-03-24T13:27:17.361Z,11.80
2023-03-24T13:30:31.466Z,9.80
2023-03-24T13:33:14.786Z,12.00
2023-03-24T13:36:04.162Z,19.10
2023-03-24T13:38:38.009Z,24.00
2023-03-24T13:41:11.496Z,13.70
2023-03-24T13:43:52.134Z,23.20
2023-03-24T13:46:20.614Z,29.10
2023-03-24T13:48:56.155Z,22.30
2023-03-24T13:51:26.937Z,30.40
2023-03-24T13:54:06.209Z,20.40
2023-03-24T13:56:37.844Z,13.90
2023-03-24T13:59:21.150Z,16.40
2023-03-24T14:02:24.465Z,33.60
2023-03-24T14:05:08.385Z,31.90
2023-03-24T14:07:39.783Z,30.30
2023-03-24T14:10:41.665Z,50.50
2023-03-24T14:13:13.006Z,46.70
2023-03-24T14:18:27.320Z,35.50
2023-03-24T14:21:04.988Z,53.10
2023-03-24T14:23:46.085Z,64.80
2023-03-24T14:26:19.963Z,51.90
2023-03-24T14:28:53.793Z,107.10
2023-03-24T14:31:36.526Z,91.00
2023-03-24T14:34:20.556Z,68.00
2023-03-24T14:37:04.058Z,34.10
2023-03-24T14:39:46.595Z,27.90
2023-03-24T14:42:33.409Z,35.50
2023-03-24T14:45:02.469Z,30.00
2023-03-24T14:47:33.579Z,47.50
2023-03-24T14:50:18.885Z,49.50
2023-03-24T14:52:54.194Z,64.20
2023-03-24T14:55:23.084Z,40.10
2023-03-24T14:57:59.946Z,22.20
2023-03-24T15:00:57.893Z,36.70
2023-03-24T15:03:59.761Z,33.40
2023-03-24T15:06:44.846Z,34.60
2023-03-24T15:09:16.539Z,34.20
2023-03-24T15:11:47.930Z,26.30
2023-03-24T15:14:24.837Z,27.20
2023-03-24T15:17:22.768Z,25.50
2023-03-24T15:19:54.178Z,38.10
2023-03-24T15:22:22.627Z,19.10
2023-03-24T15:24:52.345Z,19.70
2023-03-24T15:27:26.790Z,18.60
2023-03-24T15:29:59.422Z,26.20
2023-03-24T15:32:33.135Z,20.90
2023-03-24T15:35:07.703Z,15.50
2023-03-24T15:37:41.394Z,16.60
2023-03-24T15:40:29.829Z,23.50
2023-03-24T15:43:00.922Z,15.60
2023-03-24T15:45:43.730Z,15.30
2023-03-24T15:51:03.302Z,18.30
2023-03-24T15:53:49.335Z,17.50
2023-03-24T15:56:27.130Z,19.50
2023-03-24T15:59:17.710Z,18.10
2023-03-24T16:01:50.564Z,19.70
2023-03-24T16:04:20.851Z,25.50
2023-03-24T16:06:54.144Z,22.30
2023-03-24T16:09:27.977Z,13.50
2023-03-24T16:11:56.500Z,21.30
2023-03-24T16:14:31.490Z,19.50
2023-03-24T16:17:03.333Z,23.60
2023-03-24T16:19:33.106Z,17.00
2023-03-24T16:22:12.074Z,25.00
2023-03-24T16:24:40.564Z,23.00
2023-03-24T16:27:11.934Z,27.20
2023-03-24T16:29:40.838Z,29.90
2023-03-24T16:32:10.392Z,22.90
2023-03-24T16:34:38.691Z,28.50
2023-03-24T16:37:08.343Z,33.40
2023-03-24T16:39:36.904Z,34.50
2023-03-24T16:42:05.848Z,26.90
2023-03-24T16:44:34.777Z,23.80
2023-03-24T16:47:04.268Z,55.60
2023-03-24T16:49:32.838Z,51.20
2023-03-24T16:52:01.248Z,30.70
2023-03-24T16:54:32.493Z,35.50
2023-03-24T16:57:01.182Z,17.10
2023-03-24T16:59:29.734Z,26.80
2023-03-24T17:02:06.194Z,19.20
2023-03-24T17:04:35.525Z,23.90
2023-03-24T17:07:03.985Z,20.10
2023-03-24T17:09:35.535Z,22.40
2023-03-24T17:12:04.771Z,22.90
2023-03-24T17:14:33.364Z,20.30
2023-03-24T17:17:02.960Z,28.30
2023-03-24T17:19:31.537Z,24.80
2023-03-24T17:22:07.139Z,26.30
2023-03-24T17:24:38.198Z,34.30
2023-03-24T17:27:13.853Z,29.10
2023-03-24T17:29:42.505Z,23.50
2023-03-24T17:32:11.363Z,25.70
2023-03-24T17:34:46.162Z,18.70
2023-03-24T17:37:14.823Z,39.00
2023-03-24T17:39:43.497Z,39.20
2023-03-24T17:42:14.876Z,28.90
2023-03-24T17:44:44.957Z,30.20
2023-03-24T17:47:19.489Z,32.30
2023-03-24T17:50:11.532Z,24.60
2023-03-24T17:52:47.840Z,32.40
2023-03-24T17:55:18.069Z,28.90
2023-03-24T17:57:46.471Z,28.40
2023-03-24T18:00:16.528Z,21.80
2023-03-24T18:02:45.720Z,21.20
2023-03-24T18:05:16.115Z,27.50
2023-03-24T18:07:47.388Z,27.00
2023-03-24T18:10:15.945Z,25.30
2023-03-24T18:12:47.289Z,22.60
2023-03-24T18:15:16.054Z,33.20
2023-03-24T18:17:44.910Z,25.20
2023-03-24T18:20:21.231Z,25.30
2023-03-24T18:22:49.679Z,28.10
2023-03-24T18:25:18.600Z,27.30
2023-03-24T18:27:48.804Z,27.00
2023-03-24T18:30:17.717Z,27.10
2023-03-24T18:32:46.508Z,30.90
2023-03-24T18:35:17.940Z,24.90
2023-03-24T18:37:46.454Z,29.20
2023-03-24T18:40:15.932Z,24.80
2023-03-24T18:42:45.474Z,24.20
2023-03-24T18:45:17.674Z,23.10
2023-03-24T18:47:47.928Z,28.10
2023-03-24T18:50:17.102Z,35.20
2023-03-24T18:52:50.146Z,26.10
2023-03-24T18:55:20.508Z,28.90
2023-03-24T18:57:49.280Z,46.30
2023-03-24T19:00:21.989Z,34.90
2023-03-24T19:02:52.536Z,42.30
2023-03-24T19:05:20.993Z,40.70
2023-03-24T19:07:52.107Z,36.80
2023-03-24T19:10:20.986Z,58.60
2023-03-24T19:12:50.135Z,62.90
2023-03-24T19:15:19.060Z,47.20
2023-03-24T19:17:47.956Z,25.70
2023-03-24T19:20:18.737Z,30.80
2023-03-24T19:22:47.462Z,32.20
2023-03-24T19:25:16.087Z,28.80
2023-03-24T19:27:49.100Z,33.20
2023-03-24T19:30:18.485Z,35.00
2023-03-24T19:32:48.203Z,32.40
2023-03-24T19:35:21.733Z,44.30
2023-03-24T19:37:50.967Z,49.00
2023-03-24T19:42:51.644Z,44.10
2023-03-24T19:45:20.765Z,51.10
2023-03-24T19:47:49.760Z,49.90
2023-03-24T19:50:18.729Z,70.60
2023-03-24T19:52:50.839Z,51.50
2023-03-24T19:55:19.684Z,53.30
2023-03-24T19:57:48.023Z,66.00
2023-03-24T20:00:16.951Z,41.10
2023-03-24T20:02:45.989Z,37.90
2023-03-24T20:05:14.932Z,52.80
2023-03-24T20:07:44.170Z,54.90
2023-03-24T20:10:12.566Z,43.40
2023-03-24T20:12:45.895Z,34.00
2023-03-24T20:15:15.795Z,38.10
2023-03-24T20:17:44.602Z,49.20
2023-03-24T20:20:15.923Z,34.80
2023-03-24T20:22:48.998Z,39.50
2023-03-24T20:25:18.853Z,41.90
2023-03-24T20:27:47.970Z,40.20
2023-03-24T20:30:18.957Z,40.40
2023-03-24T20:32:48.103Z,42.50
2023-03-24T20:35:18.433Z,46.90
2023-03-24T20:37:47.182Z,56.30
2023-03-24T20:40:15.770Z,67.70
2023-03-24T20:42:44.504Z,78.00
2023-03-24T20:45:12.845Z,74.80
2023-03-24T20:47:44.787Z,83.40
2023-03-24T20:50:13.937Z,74.00
2023-03-24T20:52:47.656Z,73.10
2023-03-24T20:55:36.568Z,53.10
2023-03-24T20:58:11.532Z,46.10
2023-03-24T21:00:42.137Z,34.00
2023-03-24T21:03:11.413Z,34.10
2023-03-24T21:05:40.172Z,34.10
2023-03-24T21:08:08.634Z,31.30
2023-03-24T21:10:48.673Z,42.90
2023-03-24T21:13:17.566Z,32.10
2023-03-24T21:15:46.295Z,38.60
2023-03-24T21:18:18.087Z,34.00
2023-03-24T21:20:57.109Z,39.30
2023-03-24T21:23:25.938Z,31.40
2023-03-24T21:25:56.571Z,41.10
2023-03-24T21:28:28.310Z,49.00
2023-03-24T21:31:06.460Z,45.40
2023-03-24T21:33:40.174Z,44.30
2023-03-24T21:36:10.144Z,39.70
2023-03-24T21:38:39.352Z,34.30
2023-03-24T21:41:08.602Z,41.20
2023-03-24T21:43:38.462Z,55.30
2023-03-24T21:46:15.194Z,37.60
2023-03-24T21:48:52.084Z,72.80
2023-03-24T21:51:38.920Z,63.50
2023-03-24T21:54:15.132Z,56.30
2023-03-24T21:56:45.231Z,86.70
2023-03-24T21:59:14.133Z,64.80
2023-03-24T22:01:42.981Z,45.50
2023-03-24T22:04:11.447Z,59.90
2023-03-24T22:06:40.004Z,43.80
2023-03-24T22:09:10.596Z,37.50
2023-03-24T22:11:43.072Z,40.80
2023-03-24T22:14:19.316Z,32.20
2023-03-24T22:16:49.938Z,36.00
2023-03-24T22:19:20.399Z,48.10
2023-03-24T22:22:02.443Z,46.50
2023-03-24T22:24:31.890Z,40.70
2023-03-24T22:27:00.456Z,39.60
2023-03-24T22:29:29.388Z,38.50
2023-03-24T22:31:57.917Z,31.00
2023-03-24T22:34:28.858Z,37.60
2023-03-24T22:36:57.309Z,40.20
2023-03-24T22:39:26.207Z,35.20
2023-03-24T22:41:57.156Z,40.50
2023-03-24T22:44:25.559Z,32.40
2023-03-24T22:46:59.349Z,39.80
2023-03-24T22:49:33.104Z,35.10
2023-03-24T22:52:01.800Z,48.70
2023-03-24T22:54:35.813Z,41.40
2023-03-24T22:57:04.470Z,37.20
2023-03-24T22:59:39.311Z,39.20
2023-03-24T23:02:10.391Z,47.70
2023-03-24T23:04:40.796Z,46.50
2023-03-24T23:07:10.389Z,34.70
2023-03-24T23:09:43.304Z,35.20
2023-03-24T23:12:13.923Z,35.90
2023-03-24T23:14:42.446Z,41.00
2023-03-24T23:17:10.742Z,38.30
2023-03-24T23:19:39.654Z,41.80
2023-03-24T23:22:08.592Z,47.90
2023-03-24T23:24:39.660Z,62.70
2023-03-24T23:27:08.801Z,65.80
2023-03-24T23:29:41.355Z,51.10
2023-03-24T23:32:09.718Z,38.10
2023-03-24T23:34:38.278Z,41.80
2023-03-24T23:37:06.938Z,38.10
2023-03-24T23:39:38.504Z,36.80
2023-03-24T23:42:06.776Z,38.80
2023-03-24T23:44:38.850Z,38.40
2023-03-24T23:47:07.180Z,43.80
2023-03-24T23:49:35.827Z,40.80
2023-03-24T23:52:04.205Z,37.50
2023-03-24T23:54:32.581Z,47.80
2023-03-24T23:57:00.875Z,43.60
2023-03-24T23:59:30.799Z,50.40
